NCAR-RAP Real-Time Weather Data

Output produced by METARs form (23 February 2020  02:02 UTC)
found at http://weather.rap.ucar.edu/surface/
 
KPDX 230153Z 33004KT 10SM FEW040 BKN150 BKN200 OVC250 10/04 A3011 RMK AO2 SLP196 T01000039
KPDX 230053Z 03004KT 10SM FEW040 SCT150 BKN250 12/04 A3011 RMK AO2 SLP197 T01170039
KPDX 222353Z 04003KT 10SM FEW040 SCT160 BKN230 13/03 A3013 RMK AO2 SLP201 T01280033 10133 20050 58022
KPDX 222253Z VRB04KT 10SM SCT037 SCT250 13/03 A3015 RMK AO2 SLP209 T01330033
KPDX 222153Z VRB03KT 10SM FEW030 BKN250 12/02 A3017 RMK AO2 SLP215 T01220017
KPDX 222053Z 00000KT 10SM SCT032 BKN250 11/M01 A3019 RMK AO2 SLP223 T01111006 58018
KPDX 221953Z 02004KT 10SM SCT032 BKN042 BKN250 09/01 A3022 RMK AO2 SLP234 T00940011
KPDX 221853Z 08004KT 10SM SCT033 BKN046 BKN200 07/03 A3024 RMK AO2 SLP238 T00720028
KPDX 221753Z 07004KT 10SM BKN045 BKN200 05/02 A3025 RMK AO2 SLP241 I6000 T00500022 10050 20000 51015
KPDX 221653Z 11004KT 10SM BKN055 BKN200 03/02 A3024 RMK AO2 SLP238 T00330017
KPDX 221553Z 08003KT 10SM FEW039 FEW180 02/01 A3022 RMK AO2 SLP234 T00170006
KPDX 221453Z 08003KT 10SM FEW041 FEW180 01/M01 A3021 RMK AO2 SLP228 I1000 I3000 T00061006 50002
KPDX 221353Z 10003KT 10SM FEW180 01/00 A3021 RMK AO2 SLP228 T00110000
KPDX 221253Z 11005KT 8SM R10R/3500VP6000FT CLR 01/00 A3021 RMK AO2 SLP227 T00110000
KPDX 221153Z 00000KT 10SM CLR 03/01 A3020 RMK AO2 SLP225 T00280011 10067 20022 50002
KPDX 221053Z 00000KT 10SM CLR 03/02 A3020 RMK AO2 SLP227 T00330022
KPDX 220953Z 27006KT 10SM FEW180 03/01 A3020 RMK AO2 SLP226 T00280011
KPDX 220853Z 30004KT 10SM FEW180 04/02 A3019 RMK AO2 SLP222 T00390022 53002
KPDX 220753Z 26005KT 10SM OVC180 04/02 A3018 RMK AO2 SLP219 T00440017 401441011
KPDX 220653Z 27004KT 10SM FEW250 05/02 A3019 RMK AO2 SLP221 T00500017
KPDX 220553Z 29006KT 10SM CLR 07/02 A3018 RMK AO2 SLP220 T00670017 10144 20056 53012
KPDX 220453Z 31003KT 10SM CLR 08/02 A3017 RMK AO2 SLP217 T00780022
KPDX 220353Z 29003KT 10SM CLR 08/01 A3016 RMK AO2 SLP212 T00830011
KPDX 220253Z 29003KT 10SM SCT250 09/01 A3015 RMK AO2 SLP210 T00940011 53001
KPDX 220153Z 28004KT 10SM SCT250 11/00 A3013 RMK AO2 SLP204 T01110000
KPDX 220053Z 31003KT 10SM FEW060 SCT120 SCT250 14/01 A3014 RMK AO2 SLP205 ACSL N-E T01390006
KPDX 212353Z 36003KT 10SM SCT250 14/M01 A3015 RMK AO2 SLP208 T01441011 10144 20050 56018
KPDX 212253Z 04003KT 10SM FEW060 SCT250 14/M01 A3016 RMK AO2 SLP211 T01391011
KPDX 212153Z 18003KT 10SM FEW080 12/M01 A3018 RMK AO2 SLP218 T01221006
KPDX 212053Z 24003KT 10SM CLR 11/M01 A3020 RMK AO2 SLP226 T01061011 58017
KPDX 211953Z 00000KT 10SM CLR 09/M01 A3023 RMK AO2 SLP237 T00941011
KPDX 211853Z 00000KT 10SM CLR 08/M01 A3024 RMK AO2 SLP240 T00781011
KPDX 211753Z 31003KT 10SM CLR 06/M02 A3025 RMK AO2 SLP244 T00561017 10056 21011 50002
KPDX 211653Z 29003KT 10SM CLR 03/00 A3026 RMK AO2 SLP247 T00330000
KPDX 211553Z 00000KT 10SM CLR 01/M02 A3026 RMK AO2 SLP245 T00111017
KPDX 211453Z 00000KT 10SM CLR M01/M03 A3025 RMK AO2 SLP243 T10061028 50002
KPDX 211353Z 00000KT 10SM CLR 00/M02 A3026 RMK AO2 SLP245 T00001022
KPDX 211253Z 29003KT 10SM CLR 00/M02 A3025 RMK AO2 SLP244 T00001022
KPDX 211153Z 00000KT 10SM CLR 02/M02 A3024 RMK AO2 SLP240 T00171022 10061 20006 58005
KPDX 211053Z 33003KT 10SM CLR 03/M02 A3025 RMK AO2 SLP243 T00331017
KPDX 210953Z 31003KT 10SM CLR 01/M02 A3025 RMK AO2 SLP243 T00061022
KPDX 210853Z 08004KT 10SM CLR 03/M01 A3026 RMK AO2 SLP245 T00281011 50001
KPDX 210753Z 31003KT 10SM CLR 03/M02 A3027 RMK AO2 SLP247 T00281017 401220011
KPDX 210653Z 00000KT 10SM CLR 05/M01 A3025 RMK AO2 SLP244 T00501006
KPDX 210553Z 00000KT 10SM CLR 06/M02 A3025 RMK AO2 SLP244 T00561022 10117 20044 53009
KPDX 210453Z 07004KT 10SM CLR 06/M02 A3025 RMK AO2 SLP241 T00561022
KPDX 210353Z 10006KT 10SM CLR 07/M03 A3023 RMK AO2 SLP236 T00671028
KPDX 210253Z 12010KT 10SM CLR 08/M03 A3023 RMK AO2 SLP235 T00831028 53002